createdAt,value
2023-01-17T00:00:16.102Z,0.185100
2023-01-17T00:05:16.175Z,0.169176
2023-01-17T00:10:16.348Z,0.147887
2023-01-17T00:15:15.824Z,0.132738
2023-01-17T00:20:15.727Z,0.119359
2023-01-17T00:25:16.300Z,0.101368
2023-01-17T00:30:15.621Z,0.092553
2023-01-17T00:35:15.944Z,0.079440
2023-01-17T00:40:15.686Z,0.065216
2023-01-17T00:45:15.943Z,0.052566
2023-01-17T00:50:15.667Z,0.042004
2023-01-17T00:55:15.769Z,0.038145
2023-01-17T01:00:15.825Z,0.034315
2023-01-17T01:05:15.992Z,0.031011
2023-01-17T01:10:15.686Z,0.027955
2023-01-17T01:15:16.091Z,0.027166
2023-01-17T01:20:16.461Z,0.026406
2023-01-17T01:25:15.864Z,0.026592
2023-01-17T01:30:15.793Z,0.026044
2023-01-17T01:35:16.590Z,0.026629
2023-01-17T01:40:16.442Z,0.027123
2023-01-17T01:45:15.628Z,0.026637
2023-01-17T01:50:16.316Z,0.026734
2023-01-17T01:55:16.276Z,0.025996
2023-01-17T02:00:16.284Z,0.027021
2023-01-17T02:05:16.530Z,0.025889
2023-01-17T02:10:15.845Z,0.027915
2023-01-17T02:15:16.191Z,0.026932
2023-01-17T02:20:16.515Z,0.027166
2023-01-17T02:25:15.622Z,0.027086
2023-01-17T02:30:16.086Z,0.026753
2023-01-17T02:35:16.089Z,0.026328
2023-01-17T02:40:15.651Z,0.026176
2023-01-17T02:45:15.785Z,0.026250
2023-01-17T02:50:16.538Z,0.025726
2023-01-17T02:55:15.533Z,0.026647
2023-01-17T03:00:15.575Z,0.027137
2023-01-17T03:05:16.229Z,0.026562
2023-01-17T03:10:15.697Z,0.026026
2023-01-17T03:15:16.328Z,0.025877
2023-01-17T03:20:16.328Z,0.026531
2023-01-17T03:25:16.619Z,0.026629
2023-01-17T03:30:17.763Z,0.026486
2023-01-17T03:35:15.787Z,0.026932
2023-01-17T03:40:16.808Z,0.026304
2023-01-17T03:45:16.689Z,0.026622
2023-01-17T03:50:15.751Z,0.027139
2023-01-17T03:55:15.617Z,0.026173
2023-01-17T04:00:15.988Z,0.026689
2023-01-17T04:05:16.011Z,0.026968
2023-01-17T04:10:15.737Z,0.026581
2023-01-17T04:15:15.604Z,0.025996
2023-01-17T04:20:16.108Z,0.026480
2023-01-17T04:25:16.139Z,0.025981
2023-01-17T04:30:16.323Z,0.026744
2023-01-17T04:35:15.899Z,0.027362
2023-01-17T04:40:16.326Z,0.027144
2023-01-17T04:45:16.034Z,0.028075
2023-01-17T04:50:15.711Z,0.027584
2023-01-17T04:55:16.562Z,0.028107
2023-01-17T05:00:16.007Z,0.028288
2023-01-17T05:05:15.974Z,0.027539
2023-01-17T05:10:15.817Z,0.027004
2023-01-17T05:15:16.635Z,0.028103
2023-01-17T05:20:16.261Z,0.028149
2023-01-17T05:25:15.882Z,0.026959
2023-01-17T05:30:16.458Z,0.026959
2023-01-17T05:35:15.821Z,0.027861
2023-01-17T05:40:15.952Z,0.027113
2023-01-17T05:45:15.571Z,0.027468
2023-01-17T05:50:15.993Z,0.026570
2023-01-17T05:55:15.672Z,0.026485
2023-01-17T06:00:15.759Z,0.028033
2023-01-17T06:05:15.761Z,0.027195
2023-01-17T06:10:15.843Z,0.026579
2023-01-17T06:15:17.062Z,0.026311
2023-01-17T06:20:16.390Z,0.026167
2023-01-17T06:25:15.998Z,0.028325
2023-01-17T06:30:15.931Z,0.027606
2023-01-17T06:35:16.267Z,0.026187
2023-01-17T06:40:16.213Z,0.027087
2023-01-17T06:45:16.139Z,0.026995
2023-01-17T06:50:15.571Z,0.026609
2023-01-17T06:55:15.825Z,0.026941
2023-01-17T07:00:15.971Z,0.027344
2023-01-17T07:05:16.144Z,0.027058
2023-01-17T07:10:15.976Z,0.027119
2023-01-17T07:15:15.538Z,0.026692
2023-01-17T07:20:15.921Z,0.026763
2023-01-17T07:25:15.733Z,0.027282
2023-01-17T07:30:16.121Z,0.027252
2023-01-17T07:35:15.538Z,0.026498
2023-01-17T07:40:16.586Z,0.026969
2023-01-17T07:45:16.081Z,0.027507
2023-01-17T07:50:16.069Z,0.027023
2023-01-17T07:55:15.641Z,0.027278
2023-01-17T08:00:16.211Z,0.027552
2023-01-17T08:05:16.429Z,0.026731
2023-01-17T08:10:15.676Z,0.026685
2023-01-17T08:15:15.885Z,0.026650
2023-01-17T08:20:15.663Z,0.026771
2023-01-17T08:25:16.128Z,0.027084
2023-01-17T08:30:16.106Z,0.027449
2023-01-17T08:35:16.604Z,0.027030
2023-01-17T08:40:16.476Z,0.027672
2023-01-17T08:45:15.609Z,0.028152
2023-01-17T08:50:15.826Z,0.027624
2023-01-17T08:55:15.519Z,0.027408
2023-01-17T09:00:16.745Z,0.027133
2023-01-17T09:05:16.184Z,0.028646
2023-01-17T09:10:16.383Z,0.028242
2023-01-17T09:15:16.868Z,0.027123
2023-01-17T09:20:16.359Z,0.027150
2023-01-17T09:25:16.372Z,0.026577
2023-01-17T09:30:15.800Z,0.027187
2023-01-17T09:35:15.869Z,0.027389
2023-01-17T09:40:15.775Z,0.027195
2023-01-17T09:45:15.922Z,0.026508
2023-01-17T09:50:15.628Z,0.026262
2023-01-17T09:55:16.422Z,0.026071
2023-01-17T10:00:15.932Z,0.027289
2023-01-17T10:05:15.471Z,0.025912
2023-01-17T10:10:15.490Z,0.026283
2023-01-17T10:15:16.020Z,0.026435
2023-01-17T10:20:16.843Z,0.026424
2023-01-17T10:25:15.523Z,0.026383
2023-01-17T10:30:15.860Z,0.028212
2023-01-17T10:35:15.896Z,0.026736
2023-01-17T10:40:16.468Z,0.026039
2023-01-17T10:45:15.503Z,0.026598
2023-01-17T10:50:16.435Z,0.026950
2023-01-17T10:55:16.650Z,0.026286
2023-01-17T11:00:15.789Z,0.026295
2023-01-17T11:05:16.126Z,0.026485
2023-01-17T11:10:16.374Z,0.026446
2023-01-17T11:15:15.508Z,0.026923
2023-01-17T11:20:15.729Z,0.027506
2023-01-17T11:25:17.041Z,0.026164
2023-01-17T11:30:15.891Z,0.026761
2023-01-17T11:35:16.185Z,0.026959
2023-01-17T11:40:15.980Z,0.028264
2023-01-17T11:45:15.690Z,0.027604
2023-01-17T11:50:16.601Z,0.027942
2023-01-17T11:55:15.703Z,0.027474
2023-01-17T12:00:16.746Z,0.027077
2023-01-17T12:05:15.782Z,0.027602
2023-01-17T12:10:16.117Z,0.027305
2023-01-17T12:15:16.028Z,0.027715
2023-01-17T12:20:16.874Z,0.028194
2023-01-17T12:25:15.815Z,0.027658
2023-01-17T12:30:16.187Z,0.028073
2023-01-17T12:35:15.630Z,0.028495
2023-01-17T12:40:16.626Z,0.028162
2023-01-17T12:45:15.778Z,0.027327
2023-01-17T12:50:16.525Z,0.028853
2023-01-17T12:55:15.617Z,0.028497
2023-01-17T13:00:15.731Z,0.027315
2023-01-17T13:05:15.946Z,0.028499
2023-01-17T13:10:15.752Z,0.028230
2023-01-17T13:15:15.871Z,0.028138
2023-01-17T13:20:16.957Z,0.028352
2023-01-17T13:25:16.624Z,0.029080
2023-01-17T13:30:17.373Z,0.028898
2023-01-17T13:35:16.042Z,0.028716
2023-01-17T13:40:16.251Z,0.028852
2023-01-17T13:45:17.881Z,0.028187
2023-01-17T13:50:15.776Z,0.028170
2023-01-17T13:55:15.713Z,0.028464
2023-01-17T14:00:16.047Z,0.027678
2023-01-17T14:05:15.680Z,0.029379
2023-01-17T14:10:16.054Z,0.028554
2023-01-17T14:15:15.574Z,0.028875
2023-01-17T14:20:15.861Z,0.028966
2023-01-17T14:25:16.631Z,0.027841
2023-01-17T14:30:15.779Z,0.027760
2023-01-17T14:35:15.847Z,0.028510
2023-01-17T14:40:16.480Z,0.027846
2023-01-17T14:45:15.962Z,0.027041
2023-01-17T14:50:15.987Z,0.027147
2023-01-17T14:55:15.884Z,0.027745
2023-01-17T15:00:16.479Z,0.027584
2023-01-17T15:05:16.042Z,0.027572
2023-01-17T15:10:16.380Z,0.027765
2023-01-17T15:15:15.696Z,0.028016
2023-01-17T15:20:16.217Z,0.028152
2023-01-17T15:25:16.383Z,0.028149
2023-01-17T15:30:16.324Z,0.027871
2023-01-17T15:35:16.265Z,0.028311
2023-01-17T15:40:15.798Z,0.029677
2023-01-17T15:45:15.457Z,0.031682
2023-01-17T15:50:15.981Z,0.033588
2023-01-17T15:55:15.975Z,0.035750
2023-01-17T16:00:16.121Z,0.037653
2023-01-17T16:05:15.608Z,0.039667
2023-01-17T16:10:15.726Z,0.043458
2023-01-17T16:15:18.331Z,0.057973
2023-01-17T16:20:16.136Z,0.066695
2023-01-17T16:25:16.512Z,0.074969
2023-01-17T16:30:16.048Z,0.100163
2023-01-17T16:35:16.247Z,0.126255
2023-01-17T16:40:16.036Z,0.143296
2023-01-17T16:45:16.334Z,0.170057
2023-01-17T16:50:15.949Z,0.163443
2023-01-17T16:55:16.179Z,0.161592
2023-01-17T17:00:16.385Z,0.174720
2023-01-17T17:05:16.896Z,0.194757
2023-01-17T17:10:15.645Z,0.261571
2023-01-17T17:15:15.903Z,0.284036
2023-01-17T17:20:16.430Z,0.321382
2023-01-17T17:25:16.123Z,0.348940
2023-01-17T17:30:15.858Z,0.380064
2023-01-17T17:35:15.704Z,0.377719
2023-01-17T17:40:15.758Z,0.369342
2023-01-17T17:45:17.512Z,0.401711
2023-01-17T17:50:15.573Z,0.396910
2023-01-17T17:55:15.803Z,0.473807
2023-01-17T18:00:15.759Z,0.451986
2023-01-17T18:05:17.167Z,0.503257
2023-01-17T18:10:15.755Z,0.668446
2023-01-17T18:15:16.171Z,0.808090
2023-01-17T18:20:15.981Z,0.804876
2023-01-17T18:25:16.782Z,0.741148
2023-01-17T18:30:16.696Z,0.797836
2023-01-17T18:35:15.926Z,0.818817
2023-01-17T18:40:15.747Z,0.762677
2023-01-17T18:45:16.269Z,0.747505
2023-01-17T18:50:15.674Z,1.014288
2023-01-17T18:55:15.949Z,0.781033
2023-01-17T19:00:15.710Z,0.758331
2023-01-17T19:05:16.280Z,0.708529
2023-01-17T19:10:15.633Z,0.662770
2023-01-17T19:15:15.962Z,0.826607
2023-01-17T19:20:15.979Z,0.722754
2023-01-17T19:25:15.937Z,0.845292
2023-01-17T19:30:16.178Z,0.855336
2023-01-17T19:35:15.950Z,0.853371
2023-01-17T19:40:15.735Z,1.046862
2023-01-17T19:45:16.792Z,1.246058
2023-01-17T19:50:15.783Z,1.197793
2023-01-17T19:55:16.134Z,1.099714
2023-01-17T20:00:15.946Z,0.931617
2023-01-17T20:05:16.006Z,1.221092
2023-01-17T20:10:16.491Z,1.385539
2023-01-17T20:15:15.704Z,1.018496
2023-01-17T20:20:16.633Z,1.104703
2023-01-17T20:25:15.529Z,1.154496
2023-01-17T20:30:20.462Z,1.157440
2023-01-17T20:35:16.349Z,1.287400
2023-01-17T20:40:15.968Z,0.964704
2023-01-17T20:45:15.728Z,0.798347
2023-01-17T20:50:15.673Z,0.718048
2023-01-17T20:55:16.028Z,0.732977
2023-01-17T21:00:16.374Z,0.703408
2023-01-17T22:10:16.263Z,0.420542
2023-01-17T22:15:16.375Z,0.450244
2023-01-17T22:20:15.771Z,0.514418
2023-01-17T22:25:15.868Z,0.483523
2023-01-17T22:30:16.038Z,0.403091
2023-01-17T22:35:15.583Z,0.270137
2023-01-17T22:40:17.231Z,0.307681
2023-01-17T22:45:15.811Z,0.316009
2023-01-17T22:50:15.967Z,0.317625
2023-01-17T22:55:16.555Z,0.333712
2023-01-17T23:00:15.941Z,0.318348
2023-01-17T23:05:16.099Z,0.316860
2023-01-17T23:10:15.691Z,0.300662
2023-01-17T23:15:17.103Z,0.291442
2023-01-17T23:20:16.930Z,0.292716
2023-01-17T23:25:15.859Z,0.298687
2023-01-17T23:30:15.631Z,0.296714
2023-01-17T23:35:16.602Z,0.280058
2023-01-17T23:40:15.639Z,0.240895
2023-01-17T23:45:16.586Z,0.199918
2023-01-17T23:50:15.608Z,0.169245
2023-01-17T23:55:16.167Z,0.140863
